Monroe, SD (57047)

1:03 AM CDT on May 07, 2015 (GMT -0500)
KSDFREEM4 | | Change Station
CLOSE
Current Station
Personal Weather Station
Location: FREEMAN, SD
Elevation: 1440 ft
Nearby Weather Stations

Elev 1440 ft 43.43 °N, 97.48 °W | Updated 3 minutes ago

Overcast
Overcast
62.4 °F
Feels Like 62.4 °F
N
14.0
Wind Variable Wind from SSE
Gusts 14.0 mph

Today
High -- | Low -- °F
--% Chance of Precip.
Yesterday
High -- | Low -- °F
Precip. -- in
6:13 AM 8:37 PM
Waning Gibbous, 90% visible
Pressure 29.65 in
Visibility 10.0 miles
Clouds Scattered Clouds 2000 ft
Mostly Cloudy 8000 ft
Overcast 9500 ft
Dew Point 59 °F
Humidity 89%
Rainfall 0.10 in
Snow Depth Not available.
UV 0 out of 12
Pollen 7.20 out of 12
Air Quality Not available.
Flu Activity Sporadic
METAR KFSD 070556Z AUTO 15019G24KT 10SM SCT020 BKN080 OVC095 17/15 A2966 RMK AO2 RAE14 SLP038 P0000 60010 T01720150 10200 20167 402220167 58006

More Conditions Fewer Conditions

Pressure 29.65 in
Visibility 10.0 miles
Clouds Scattered Clouds 2000 ft
Mostly Cloudy 8000 ft
Overcast 9500 ft
Dew Point 59 °F
Humidity 89%
Rainfall 0.10 in
Snow Depth Not available.
UV 0 out of 12
Pollen 7.20 out of 12
Air Quality Not available.
Flu Activity Sporadic
METAR KFSD 070556Z AUTO 15019G24KT 10SM SCT020 BKN080 OVC095 17/15 A2966 RMK AO2 RAE14 SLP038 P0000 60010 T01720150 10200 20167 402220167 58006

More Conditions Fewer Conditions

10-Day Weather Forecast

Almanac

Astronomy

May. 07, 2015 Rise Set
Actual Time
Civil Twilight
Nautical Twilight
Astronomical Twilight
Moon
Length of Visible Light
Length of Day
Tomorrow will be .
, % of the Moon is Illuminated

Today's Extremes

State Highs State Lows

Community

WunderPhotos

Upload Photos

1,819,126 photos uploaded!

WunderBlogs® & News

Nearby

Air Quality

  Air Quality AQ Index Pollutant
Not available.

Snow Depth

Station Depth Elevation

Earthquake Activity

City Distance Mag. Time & Date
Minimum magnitude displayed is 2.5.

Coastal Water Temperatures

Place Temperature

Stations

Nearby Weather Stations

Station Location Temp. Windchill Dew Point Humidity Wind Precip. Elev Updated Type